Aeroporto :
LOGIN :

Iscrizione | Disclaimer

   EN    FR    IT 

 










Sommario :    VFR   VFR Marginale   IFR   IFR Intensivo   IFR Molto Intensivo
Visibilità : 
Base nubi : 
>= 8 km
>= 3000ft
5 / 8 km
1000 / 3000 ft
1500m / 5 km
500 / 1000 ft
800 / 1500m
200 / 500 ft
< 800m
< 200 ft
Simboli :   Temporali  Nebbia  Neve Forte  Precipitazioni Forti  Vento > 20 kt
SIGMETs :   Varie  Temporali  Ghiacco  Turbolenza  Onda orograficha  Ceneri Vulcaniche







- Altitudine del aeroporto : 245 ft
- Codice IATA : BIQ
- Carte del aeroporto


LFBZ - Biarritz

ULTIMO METAR :
  • 240500Z AUTO 30009KT 9999 4500 BKN011 BKN016 BKN023 14/13 Q1019 TEMPO 27015G25KT 3000 RA BKN005 BKN020TCU

METARs OBSOLETI :
  • 240430Z AUTO 30009KT 9999 FEW007/// BKN013/// BKN026/// ///TCU 14/13 Q1019 TEMPO 27015G25KT 3000 RA BKN005 BKN020TCU
  • 240400Z AUTO 28010KT 6000 -RA FEW005/// BKN011/// OVC018/// ///TCU 14/14 Q1018 TEMPO 27015G25KT 3000 RA BKN005 BKN020TCU
  • 240330Z AUTO 27012KT 240V320 5000 -RA BR BKN003 OVC007 14/14 Q1018 TEMPO 27015G25KT RA BKN005 BKN020TCU
  • 240300Z AUTO 28012KT 6000 2000 +RA BKN005 OVC009 14/14 Q1018 TEMPO 27015G25KT 3000 RA BKN005 BKN020TCU
  • 240230Z AUTO 28010KT 8000 -RA OVC006 15/14 Q1019 TEMPO 27015G25KT 3000 RA BKN005 BKN020TCU

TAF TAF LFBZ
Valido dal 24 a 00 ore il 25 a 00 ore UTC


232300Z 2400/2424 27012KT 9999 BKN015 OVC030
TEMPO 2400/2410 27015G25KT 3000 RA BKN005 BKN020TCU
PROB30
TEMPO 2410/2424 4000 -SHRA BKN014TCU
Nessun NOTAM noto per questo aeroporto.



MetMap, La meteo Aeronautica in un colpo d'occhio ! - Copyright ORBIFLY Dicembre 2007 - Disclaimer

ORBIFLY MET'MAP TEAM :

Programmazione e sviluppo : Alexandra Zaïnal
Concezione e sviluppo : Baudouin d'Aumeries
Co-Programmazione e sviluppo : Marc-Olivier Méhu
Supporto tecnico e logistico : Manuel Goepfert
Aiuto per la traduzione : Arnaldo La Scala

Contatto : metmap@orbifly.com




FONTI E CREDITI :

   NOAA